Time;durP1;ratioP1;P1;durP2;ratioP2;P2;SDS_P1;SDS_P2;PMS_P1;PMS_P2;Temp;Humidity;BMP_temperature;BMP_pressure;BME280_temperature;BME280_humidity;BME280_pressure;Samples;Min_cycle;Max_cycle;Signal;HPM_P1;HPM_P2
2023/10/01 00:00:30;;;;;;;4.78;2.08;;;16.40;53.00;;;;;;2341824;53;21027;-70
2023/10/01 00:02:57;;;;;;;5.93;2.10;;;16.40;52.90;;;;;;2611346;52;20944;-67
2023/10/01 00:05:24;;;;;;;5.12;2.37;;;16.40;53.00;;;;;;2607702;52;21266;-68
2023/10/01 00:07:51;;;;;;;6.20;2.40;;;16.40;53.00;;;;;;2358505;53;20929;-68
2023/10/01 00:10:18;;;;;;;4.75;1.83;;;16.30;52.90;;;;;;2622327;52;20994;-69
2023/10/01 00:12:46;;;;;;;5.60;2.08;;;16.30;53.00;;;;;;2370129;53;21006;-68
2023/10/01 00:15:23;;;;;;;4.45;1.85;;;16.30;53.00;;;;;;2623330;52;21771;-68
2023/10/01 00:17:49;;;;;;;5.68;2.03;;;16.30;53.10;;;;;;2342852;53;21745;-67
2023/10/01 00:20:20;;;;;;;4.32;1.90;;;16.20;53.00;;;;;;2588689;52;21013;-68
2023/10/01 00:22:50;;;;;;;5.15;2.17;;;16.20;53.00;;;;;;2592741;52;20986;-71
2023/10/01 00:25:21;;;;;;;5.45;2.10;;;16.20;53.00;;;;;;2364595;54;20890;-68
2023/10/01 00:27:49;;;;;;;5.60;2.22;;;16.20;53.10;;;;;;2610449;52;20993;-68
2023/10/01 00:30:18;;;;;;;4.97;1.92;;;16.10;53.00;;;;;;2587950;52;21499;-68
2023/10/01 00:32:45;;;;;;;5.20;1.87;;;16.10;53.10;;;;;;2356658;53;21003;-67
2023/10/01 00:35:14;;;;;;;6.32;2.17;;;16.10;53.20;;;;;;2586262;52;20941;-71
2023/10/01 00:37:40;;;;;;;4.90;2.35;;;16.10;53.20;;;;;;2587570;52;20947;-67
2023/10/01 00:40:08;;;;;;;5.07;1.90;;;16.10;53.90;;;;;;2596515;52;20930;-68
2023/10/01 00:42:38;;;;;;;5.72;2.10;;;16.00;53.20;;;;;;2348870;53;20971;-68
2023/10/01 00:45:11;;;;;;;6.97;2.40;;;16.00;53.40;;;;;;2588732;52;20928;-68
2023/10/01 00:47:40;;;;;;;5.78;2.10;;;16.00;53.40;;;;;;2342033;53;20976;-72
2023/10/01 00:50:24;;;;;;;6.10;2.50;;;16.00;53.40;;;;;;2360054;53;20970;-68
2023/10/01 00:52:56;;;;;;;5.20;2.00;;;16.00;53.50;;;;;;2600483;52;20944;-69
2023/10/01 00:55:23;;;;;;;6.03;2.25;;;16.00;53.40;;;;;;2599076;52;20917;-69
2023/10/01 00:57:49;;;;;;;4.80;1.95;;;15.90;53.30;;;;;;2342223;53;21032;-68
2023/10/01 01:00:16;;;;;;;5.45;2.45;;;15.90;53.30;;;;;;2606578;52;21489;-68
2023/10/01 01:07:14;;;;;;;6.43;2.30;;;15.90;53.40;;;;;;2336026;53;20929;-68
2023/10/01 01:09:43;;;;;;;4.45;2.08;;;15.80;53.10;;;;;;2361772;53;20973;-68
2023/10/01 01:12:10;;;;;;;5.40;2.08;;;15.80;53.40;;;;;;2341640;53;21418;-69
2023/10/01 01:14:36;;;;;;;5.68;2.42;;;15.80;53.40;;;;;;2350824;53;21204;-67
2023/10/01 01:17:04;;;;;;;4.90;2.10;;;15.80;53.40;;;;;;2595344;52;20929;-68
2023/10/01 01:19:33;;;;;;;7.40;2.80;;;15.70;53.50;;;;;;2587593;52;21328;-68
2023/10/01 01:22:02;;;;;;;5.55;2.58;;;15.70;53.50;;;;;;2588555;52;20953;-68
2023/10/01 01:24:32;;;;;;;6.35;2.30;;;15.70;53.50;;;;;;2587951;52;20990;-68
2023/10/01 01:27:05;;;;;;;5.62;2.28;;;15.70;53.50;;;;;;2588761;52;20889;-68
2023/10/01 01:29:40;;;;;;;6.20;2.10;;;15.70;53.60;;;;;;2342457;54;21013;-68
2023/10/01 01:32:13;;;;;;;6.35;2.28;;;15.60;53.50;;;;;;2591501;52;20938;-73
2023/10/01 01:34:52;;;;;;;7.35;2.35;;;15.60;53.50;;;;;;2338318;53;20979;-68
2023/10/01 01:37:36;;;;;;;4.50;1.90;;;15.60;53.70;;;;;;2588542;52;21463;-68
2023/10/01 01:40:23;;;;;;;5.07;1.80;;;15.60;53.60;;;;;;2342240;54;20916;-68
2023/10/01 01:42:56;;;;;;;6.05;2.08;;;15.60;53.60;;;;;;2342633;54;21709;-69
2023/10/01 01:45:27;;;;;;;5.00;2.03;;;15.50;53.50;;;;;;2588850;52;21021;-72
2023/10/01 01:47:54;;;;;;;5.93;2.47;;;15.60;53.60;;;;;;2589123;52;20976;-68
2023/10/01 01:50:26;;;;;;;6.18;2.42;;;15.50;53.70;;;;;;2588156;52;21850;-69
2023/10/01 01:52:57;;;;;;;6.05;2.10;;;15.50;53.80;;;;;;2342835;54;20999;-70
2023/10/01 01:55:34;;;;;;;5.85;2.30;;;15.40;53.80;;;;;;2342422;54;21365;-70
2023/10/01 01:58:10;;;;;;;5.55;2.42;;;15.40;53.70;;;;;;2588421;52;20970;-69
2023/10/01 02:00:46;;;;;;;5.45;2.15;;;15.40;53.70;;;;;;2342125;54;20984;-69
2023/10/01 02:03:14;;;;;;;5.22;2.08;;;15.40;53.70;;;;;;2589039;52;21808;-69
2023/10/01 02:05:44;;;;;;;5.18;2.20;;;15.40;53.80;;;;;;2588375;52;20971;-72
2023/10/01 02:10:59;;;;;;;7.10;2.42;;;15.40;53.90;;;;;;2586916;52;21488;-70
2023/10/01 02:13:27;;;;;;;6.47;2.40;;;15.30;53.90;;;;;;2325934;53;20980;-68
2023/10/01 02:15:54;;;;;;;5.65;2.05;;;15.30;53.90;;;;;;2609173;52;20974;-68
2023/10/01 02:18:23;;;;;;;5.95;2.22;;;15.30;53.90;;;;;;2615784;52;21458;-72
2023/10/01 02:20:52;;;;;;;7.75;2.50;;;15.30;53.90;;;;;;2333253;54;20993;-68
2023/10/01 02:23:32;;;;;;;4.87;2.20;;;15.30;53.90;;;;;;2350012;53;21027;-71
2023/10/01 02:26:00;;;;;;;6.05;2.25;;;15.30;54.00;;;;;;2599005;52;20941;-69
2023/10/01 02:28:27;;;;;;;5.53;2.25;;;15.30;54.00;;;;;;2587947;52;20952;-69
2023/10/01 02:31:06;;;;;;;5.45;2.25;;;15.20;53.90;;;;;;2342787;53;21767;-72
2023/10/01 02:33:55;;;;;;;5.85;2.50;;;15.20;53.90;;;;;;2588572;52;20912;-67
2023/10/01 02:36:23;;;;;;;5.03;2.00;;;15.20;54.00;;;;;;2343051;53;21402;-69
2023/10/01 02:38:53;;;;;;;5.07;1.98;;;15.20;54.00;;;;;;2588099;52;21760;-71
2023/10/01 02:41:25;;;;;;;4.53;1.80;;;15.20;54.00;;;;;;2342229;53;20948;-70
2023/10/01 02:43:55;;;;;;;5.07;2.15;;;15.20;54.10;;;;;;2342110;53;21080;-71
2023/10/01 02:46:27;;;;;;;5.72;2.30;;;15.20;54.10;;;;;;2351428;53;20950;-71
2023/10/01 02:48:59;;;;;;;4.85;1.90;;;15.10;54.10;;;;;;2351294;53;20955;-69
2023/10/01 02:51:38;;;;;;;;;;;15.10;54.10;;;;;;2345870;53;20996;-72
2023/10/01 02:54:09;;;;;;;4.40;1.80;;;15.10;54.20;;;;;;2588941;52;20063;-71
2023/10/01 02:56:37;;;;;;;4.80;2.10;;;15.10;53.90;;;;;;2622182;52;20994;-72
2023/10/01 02:59:13;;;;;;;4.10;1.70;;;15.10;54.00;;;;;;2370621;53;20970;-72
2023/10/01 03:01:42;;;;;;;5.68;2.33;;;15.10;54.00;;;;;;2622617;52;21058;-68
2023/10/01 03:04:16;;;;;;;6.20;2.08;;;15.00;53.90;;;;;;2623004;52;20950;-71
2023/10/01 03:06:52;;;;;;;;;;;15.00;54.00;;;;;;2625414;52;21350;-71
2023/10/01 03:09:22;;;;;;;5.37;2.05;;;15.00;54.20;;;;;;2369253;53;20058;-69
2023/10/01 03:11:53;;;;;;;8.68;2.83;;;15.00;53.90;;;;;;2369098;53;20958;-71
2023/10/01 03:14:25;;;;;;;6.60;2.80;;;14.90;54.00;;;;;;2622375;52;20903;-70
2023/10/01 03:16:54;;;;;;;6.15;2.40;;;14.90;54.10;;;;;;2622783;52;21029;-69
2023/10/01 03:19:27;;;;;;;6.35;2.60;;;14.90;54.20;;;;;;2622624;52;20979;-71
2023/10/01 03:22:15;;;;;;;5.70;2.40;;;14.90;54.20;;;;;;2359863;53;21006;-70
2023/10/01 03:24:45;;;;;;;4.40;1.90;;;14.90;54.20;;;;;;2365043;53;20926;-68
2023/10/01 03:27:33;;;;;;;7.05;2.55;;;14.90;54.20;;;;;;2623633;52;20950;-71
2023/10/01 03:30:19;;;;;;;4.85;2.08;;;14.90;54.20;;;;;;2623152;52;20935;-72
2023/10/01 03:32:46;;;;;;;4.75;2.10;;;14.90;54.20;;;;;;2369851;53;21890;-68
2023/10/01 03:35:12;;;;;;;5.70;2.17;;;14.90;54.10;;;;;;2623169;52;20937;-70
2023/10/01 03:37:39;;;;;;;5.53;2.20;;;14.80;54.20;;;;;;2370122;53;20930;-71
2023/10/01 03:40:18;;;;;;;5.30;2.17;;;14.80;54.30;;;;;;2357504;53;21452;-69
2023/10/01 03:42:51;;;;;;;8.02;2.42;;;14.80;54.30;;;;;;2602367;52;21270;-70
2023/10/01 03:45:52;;;;;;;6.45;2.58;;;14.80;54.30;;;;;;2358935;53;21019;-69
2023/10/01 03:48:19;;;;;;;5.45;2.30;;;14.80;55.00;;;;;;2370214;53;20922;-70
2023/10/01 03:50:47;;;;;;;6.07;2.60;;;14.70;54.40;;;;;;2621046;52;21372;-70
2023/10/01 03:53:13;;;;;;;5.70;2.40;;;14.70;54.50;;;;;;2623095;52;20934;-70
2023/10/01 03:55:46;;;;;;;8.20;3.28;;;14.70;54.60;;;;;;2622626;52;20937;-68
2023/10/01 03:58:25;;;;;;;5.65;2.83;;;14.70;54.60;;;;;;2623010;52;21148;-71
2023/10/01 04:00:54;;;;;;;6.55;2.60;;;14.70;54.70;;;;;;2369827;53;21208;-70
2023/10/01 04:03:21;;;;;;;5.07;2.45;;;14.70;54.80;;;;;;2621387;52;21460;-70
2023/10/01 04:05:48;;;;;;;5.30;2.10;;;14.70;54.80;;;;;;2347719;53;20986;-70
2023/10/01 04:08:15;;;;;;;6.12;2.40;;;14.70;54.80;;;;;;2370728;53;21136;-70
2023/10/01 04:10:43;;;;;;;5.57;2.28;;;14.70;54.80;;;;;;2370068;53;21002;-72
2023/10/01 04:13:20;;;;;;;6.40;2.60;;;14.70;54.80;;;;;;2343590;53;20949;-69
2023/10/01 04:15:55;;;;;;;6.28;2.37;;;14.70;54.80;;;;;;2588384;52;20984;-68
2023/10/01 04:18:23;;;;;;;6.93;2.40;;;14.70;54.80;;;;;;2589595;52;20947;-68
2023/10/01 04:21:24;;;;;;;8.70;2.72;;;14.70;54.70;;;;;;2342319;53;20964;-68
2023/10/01 04:23:51;;;;;;;5.65;2.60;;;14.70;54.90;;;;;;2588627;52;20932;-70
2023/10/01 04:26:17;;;;;;;5.57;2.78;;;14.70;54.90;;;;;;2589436;52;20941;-69
2023/10/01 04:28:54;;;;;;;7.28;2.65;;;14.70;54.90;;;;;;2342435;53;20929;-70
2023/10/01 04:31:42;;;;;;;8.38;3.00;;;14.70;55.00;;;;;;2588204;52;21001;-70
2023/10/01 04:34:11;;;;;;;5.68;2.47;;;14.70;55.00;;;;;;2596936;52;20944;-69
2023/10/01 04:36:50;;;;;;;8.80;3.05;;;14.70;55.00;;;;;;2349412;53;20905;-72
2023/10/01 04:39:19;;;;;;;5.30;2.40;;;14.70;55.10;;;;;;2343017;53;20928;-70
2023/10/01 04:41:58;;;;;;;5.12;2.00;;;14.70;55.00;;;;;;2341975;53;20925;-70
2023/10/01 04:44:26;;;;;;;6.00;2.60;;;14.60;54.90;;;;;;2588941;52;20901;-69
2023/10/01 04:46:55;;;;;;;5.37;2.17;;;14.60;54.80;;;;;;2593058;52;20956;-71
2023/10/01 04:49:27;;;;;;;5.20;2.33;;;14.60;54.80;;;;;;2600615;52;21031;-69
2023/10/01 04:52:01;;;;;;;5.90;2.30;;;14.60;54.80;;;;;;2342539;53;21742;-69
2023/10/01 04:54:28;;;;;;;5.50;2.17;;;14.60;54.90;;;;;;2598894;52;20921;-69
2023/10/01 04:56:57;;;;;;;5.97;2.37;;;14.60;55.00;;;;;;2347951;53;21469;-68
2023/10/01 04:59:24;;;;;;;5.65;2.65;;;14.60;55.00;;;;;;2588845;52;21438;-71
2023/10/01 05:01:56;;;;;;;5.82;2.60;;;14.60;55.00;;;;;;2575196;52;21016;-71
2023/10/01 05:04:23;;;;;;;4.70;2.08;;;14.50;55.00;;;;;;2342538;54;20937;-70
2023/10/01 05:07:04;;;;;;;5.60;2.37;;;14.50;55.00;;;;;;2592454;52;20967;-72
2023/10/01 05:09:33;;;;;;;6.43;2.78;;;14.50;54.90;;;;;;2612057;52;20993;-71
2023/10/01 05:12:01;;;;;;;6.30;2.60;;;14.50;55.00;;;;;;2585205;52;20979;-71
2023/10/01 05:14:29;;;;;;;7.43;3.17;;;14.50;55.10;;;;;;2596579;53;20972;-71
2023/10/01 05:16:58;;;;;;;6.80;2.60;;;14.50;55.30;;;;;;2573062;53;21032;-68
2023/10/01 05:19:37;;;;;;;7.00;2.95;;;14.50;55.30;;;;;;2366749;53;21875;-68
2023/10/01 05:22:05;;;;;;;5.65;2.42;;;14.50;55.10;;;;;;2623257;52;21753;-69
2023/10/01 05:24:34;;;;;;;7.65;2.85;;;14.50;55.10;;;;;;2621729;52;21426;-68
2023/10/01 05:27:08;;;;;;;4.07;1.80;;;14.50;55.10;;;;;;2622480;52;20913;-69
2023/10/01 05:29:36;;;;;;;6.03;2.30;;;14.50;55.20;;;;;;2369204;53;20918;-69
2023/10/01 05:32:04;;;;;;;5.95;2.40;;;14.40;55.10;;;;;;2369606;53;20969;-67
2023/10/01 05:34:33;;;;;;;5.40;2.15;;;14.40;55.30;;;;;;2622079;52;21269;-72
2023/10/01 05:37:09;;;;;;;4.97;2.12;;;14.40;55.20;;;;;;2621831;52;20939;-68
2023/10/01 05:42:28;;;;;;;5.40;2.10;;;14.50;55.30;;;;;;2621735;52;20926;-71
2023/10/01 05:44:59;;;;;;;6.43;2.50;;;14.40;55.30;;;;;;2622102;52;20903;-71
2023/10/01 05:47:41;;;;;;;5.10;2.60;;;14.40;55.40;;;;;;2622601;52;20922;-69
2023/10/01 05:50:09;;;;;;;4.68;2.15;;;14.30;55.40;;;;;;2623141;52;21062;-71
2023/10/01 05:52:40;;;;;;;5.30;2.05;;;14.30;55.40;;;;;;2369725;53;21462;-67
2023/10/01 05:55:08;;;;;;;4.70;2.20;;;14.30;55.40;;;;;;2622782;52;20938;-67
2023/10/01 05:57:35;;;;;;;5.55;2.20;;;14.30;55.40;;;;;;2621987;52;20938;-68
2023/10/01 06:00:03;;;;;;;6.03;2.50;;;14.30;55.40;;;;;;2370474;53;21009;-73
2023/10/01 06:02:41;;;;;;;5.85;2.58;;;14.30;56.10;;;;;;2622756;52;21136;-72
2023/10/01 06:05:33;;;;;;;8.13;2.90;;;14.30;55.50;;;;;;2366104;53;20976;-70
2023/10/01 06:08:00;;;;;;;5.82;2.28;;;14.30;55.70;;;;;;2370375;53;20985;-69
2023/10/01 06:10:28;;;;;;;5.80;2.47;;;14.30;55.60;;;;;;2370340;53;20998;-70
2023/10/01 06:12:56;;;;;;;5.90;2.45;;;14.30;55.60;;;;;;2622343;52;20990;-69
2023/10/01 06:15:29;;;;;;;6.40;2.67;;;14.40;55.70;;;;;;2370625;53;20942;-69
2023/10/01 06:17:56;;;;;;;6.37;2.75;;;14.40;55.80;;;;;;2622434;52;21420;-72
2023/10/01 06:20:26;;;;;;;5.00;2.58;;;14.30;55.70;;;;;;2622676;52;21427;-67
2023/10/01 06:22:56;;;;;;;7.00;2.35;;;14.40;55.90;;;;;;2369342;53;21017;-71
2023/10/01 06:25:39;;;;;;;5.50;2.33;;;14.40;55.90;;;;;;2370360;53;21513;-72
2023/10/01 06:28:10;;;;;;;6.03;2.83;;;14.40;55.90;;;;;;2622981;52;20946;-68
2023/10/01 06:30:40;;;;;;;7.10;3.25;;;14.40;56.00;;;;;;2612844;52;21453;-67
2023/10/01 06:33:24;;;;;;;6.82;3.10;;;14.40;56.00;;;;;;2369173;53;21395;-68
2023/10/01 06:36:15;;;;;;;7.12;2.85;;;14.40;56.10;;;;;;2601008;52;20997;-69
2023/10/01 06:38:44;;;;;;;5.43;2.45;;;14.50;56.30;;;;;;2342583;53;20984;-69
2023/10/01 06:41:16;;;;;;;8.35;2.97;;;14.50;56.90;;;;;;2589375;52;20905;-68
2023/10/01 06:43:54;;;;;;;7.57;3.35;;;14.50;56.40;;;;;;2589192;52;20892;-68
2023/10/01 06:46:27;;;;;;;6.12;2.62;;;14.50;56.50;;;;;;2589703;52;20945;-68
2023/10/01 06:48:56;;;;;;;6.72;2.90;;;14.50;56.60;;;;;;2588845;52;21449;-68
2023/10/01 06:51:24;;;;;;;6.70;2.78;;;14.60;56.70;;;;;;2617515;52;20977;-68
2023/10/01 06:53:58;;;;;;;6.20;2.80;;;14.60;56.80;;;;;;2365377;54;20958;-70
2023/10/01 06:56:33;;;;;;;6.35;2.70;;;14.80;57.10;;;;;;2617585;52;20962;-69
2023/10/01 06:59:13;;;;;;;7.62;3.00;;;14.70;56.90;;;;;;2350976;53;20909;-71
2023/10/01 07:01:46;;;;;;;6.87;2.72;;;14.80;57.10;;;;;;2588193;52;20925;-69
2023/10/01 07:04:32;;;;;;;7.40;3.17;;;14.80;57.10;;;;;;2588253;52;20972;-68
2023/10/01 07:06:59;;;;;;;5.07;2.28;;;14.90;57.70;;;;;;2588263;52;21696;-68
2023/10/01 07:09:32;;;;;;;5.72;2.58;;;14.90;57.30;;;;;;2588214;52;20918;-68
2023/10/01 07:12:02;;;;;;;6.07;2.40;;;14.90;57.30;;;;;;2341509;53;20934;-68
2023/10/01 07:14:44;;;;;;;7.05;2.80;;;15.00;57.50;;;;;;2589368;52;20925;-68
2023/10/01 07:17:15;;;;;;;6.75;2.78;;;15.10;57.70;;;;;;2343236;53;20920;-69
2023/10/01 07:19:43;;;;;;;6.65;2.87;;;15.20;57.90;;;;;;2342158;53;20996;-70
2023/10/01 07:22:09;;;;;;;6.35;3.03;;;15.20;57.80;;;;;;2588855;52;20932;-69
2023/10/01 07:24:36;;;;;;;6.85;2.75;;;15.30;58.10;;;;;;2591802;52;21008;-70
2023/10/01 07:27:04;;;;;;;8.00;3.55;;;15.50;58.40;;;;;;2369706;53;20930;-68
2023/10/01 07:29:34;;;;;;;7.43;3.55;;;15.40;58.30;;;;;;2370003;53;20922;-67
2023/10/01 07:32:07;;;;;;;7.87;3.65;;;15.50;58.50;;;;;;2621855;52;20938;-68
2023/10/01 07:34:39;;;;;;;6.80;3.10;;;15.60;58.50;;;;;;2369806;53;20930;-68
2023/10/01 07:37:07;;;;;;;7.55;2.65;;;15.70;58.70;;;;;;2621447;52;21237;-68
2023/10/01 07:39:37;;;;;;;8.57;3.60;;;15.80;58.70;;;;;;2622684;52;21994;-68
2023/10/01 07:42:10;;;;;;;8.10;3.33;;;15.90;59.00;;;;;;2369745;53;20999;-68
2023/10/01 07:44:36;;;;;;;5.93;2.62;;;16.00;59.10;;;;;;2622391;52;20938;-69
2023/10/01 07:47:03;;;;;;;7.22;3.60;;;16.10;59.10;;;;;;2369873;53;20926;-68
2023/10/01 07:49:48;;;;;;;8.05;3.35;;;16.20;59.20;;;;;;2369521;53;20946;-70
2023/10/01 07:52:17;;;;;;;7.28;2.97;;;16.30;59.30;;;;;;2622759;52;21065;-68
2023/10/01 07:54:48;;;;;;;6.60;3.20;;;16.40;59.30;;;;;;2622269;52;20927;-68
2023/10/01 07:57:27;;;;;;;7.00;2.42;;;16.50;59.50;;;;;;2623058;52;20903;-69
2023/10/01 08:00:00;;;;;;;6.00;2.53;;;16.60;59.60;;;;;;2353142;53;20928;-69
2023/10/01 08:02:28;;;;;;;6.90;2.78;;;16.70;59.60;;;;;;2616130;52;20973;-68
2023/10/01 08:05:00;;;;;;;7.20;2.97;;;16.90;59.60;;;;;;2614928;52;20951;-68
2023/10/01 08:07:31;;;;;;;6.00;2.55;;;17.00;59.60;;;;;;2366443;53;20919;-71
2023/10/01 08:09:59;;;;;;;5.72;2.50;;;17.10;59.80;;;;;;2622831;52;20990;-68
2023/10/01 08:15:58;;;;;;;5.85;2.60;;;17.30;59.70;;;;;;2587766;52;20961;-69
2023/10/01 08:18:34;;;;;;;6.60;2.78;;;17.50;59.70;;;;;;2593962;52;20989;-72
2023/10/01 08:21:04;;;;;;;7.00;2.75;;;17.60;59.70;;;;;;2621805;52;20966;-69
2023/10/01 08:23:33;;;;;;;5.47;2.67;;;17.70;59.80;;;;;;2613621;52;21531;-68
2023/10/01 08:26:39;;;;;;;7.70;2.62;;;17.80;59.80;;;;;;2601083;52;21378;-70
2023/10/01 08:29:07;;;;;;;5.37;2.50;;;17.90;59.80;;;;;;2617351;52;21950;-69
2023/10/01 08:37:37;;;;;;;5.50;2.55;;;18.20;59.90;;;;;;2621345;52;21041;-69
2023/10/01 08:40:17;;;;;;;6.18;2.58;;;18.50;59.60;;;;;;2621211;52;20919;-70
2023/10/01 08:42:47;;;;;;;6.70;2.58;;;18.60;59.70;;;;;;2621747;52;21389;-69
2023/10/01 08:45:17;;;;;;;9.82;3.30;;;18.70;59.60;;;;;;2369395;53;20934;-70
2023/10/01 08:47:47;;;;;;;8.40;3.40;;;18.80;59.70;;;;;;2622005;52;21024;-69
2023/10/01 08:50:29;;;;;;;6.65;2.95;;;18.90;59.80;;;;;;2369324;53;20946;-68
2023/10/01 08:52:57;;;;;;;7.57;3.35;;;19.00;59.80;;;;;;2588170;52;21001;-71
2023/10/01 08:56:04;;;;;;;9.00;3.70;;;19.10;59.70;;;;;;2588268;52;20909;-69
2023/10/01 08:58:48;;;;;;;8.10;3.97;;;19.20;59.90;;;;;;2349087;53;20961;-68
2023/10/01 09:01:20;;;;;;;7.72;3.47;;;19.40;59.90;;;;;;2597852;52;21096;-69
2023/10/01 09:03:51;;;;;;;6.82;3.30;;;19.50;59.90;;;;;;2341288;53;21012;-68
2023/10/01 09:06:28;;;;;;;8.18;3.67;;;19.60;60.00;;;;;;2342410;53;20953;-68
2023/10/01 09:08:59;;;;;;;8.23;3.20;;;19.70;59.80;;;;;;2346449;53;20970;-69
2023/10/01 09:11:47;;;;;;;7.25;3.12;;;19.80;59.70;;;;;;2621857;52;21402;-69
2023/10/01 09:14:25;;;;;;;6.40;2.90;;;19.90;59.60;;;;;;2619589;52;21061;-68
2023/10/01 09:16:59;;;;;;;6.95;2.87;;;20.00;59.50;;;;;;2368726;53;20918;-69
2023/10/01 09:19:31;;;;;;;;;;;20.10;59.30;;;;;;2372904;53;21743;-69
2023/10/01 09:22:35;;;;;;;5.57;2.40;;;20.20;59.30;;;;;;2621101;52;20068;-69
2023/10/01 09:25:20;;;;;;;5.93;2.58;;;20.40;59.00;;;;;;2620419;52;21217;-71
2023/10/01 09:27:57;;;;;;;6.25;3.10;;;20.50;59.00;;;;;;2620729;52;20950;-70
2023/10/01 09:30:26;;;;;;;6.40;2.87;;;20.60;58.90;;;;;;2369400;53;22314;-71
2023/10/01 09:33:05;;;;;;;6.68;2.60;;;20.70;58.80;;;;;;2369179;53;20958;-69
2023/10/01 09:36:07;;;;;;;7.80;3.12;;;20.70;58.60;;;;;;2368670;53;20982;-69
2023/10/01 09:39:03;;;;;;;8.20;3.45;;;20.80;58.50;;;;;;2590311;52;21477;-68
2023/10/01 09:41:33;;;;;;;11.35;4.00;;;20.90;58.80;;;;;;2586187;52;20897;-69
2023/10/01 09:44:02;;;;;;;8.85;3.72;;;21.00;58.80;;;;;;2356583;53;21750;-69
2023/10/01 09:46:34;;;;;;;8.48;3.47;;;21.10;58.80;;;;;;2341266;53;20964;-69
2023/10/01 09:49:02;;;;;;;7.43;3.37;;;21.10;58.70;;;;;;2603189;52;22038;-69
2023/10/01 09:51:34;;;;;;;7.97;3.85;;;21.30;58.80;;;;;;2588404;52;20964;-69
2023/10/01 09:54:02;;;;;;;8.13;3.45;;;21.40;58.80;;;;;;2336870;53;20941;-68
2023/10/01 09:56:30;;;;;;;7.78;3.58;;;21.40;58.50;;;;;;2587827;52;20913;-68
2023/10/01 09:59:06;;;;;;;6.53;2.90;;;21.50;58.60;;;;;;2342072;53;20981;-68
2023/10/01 10:01:38;;;;;;;6.50;2.72;;;21.60;58.50;;;;;;2614438;52;20990;-69
2023/10/01 10:04:11;;;;;;;8.30;3.83;;;21.70;58.40;;;;;;2365408;54;21204;-68
2023/10/01 10:06:39;;;;;;;7.82;3.53;;;21.80;58.40;;;;;;2621758;52;20914;-69
2023/10/01 10:09:09;;;;;;;7.32;3.30;;;21.90;58.30;;;;;;2620983;52;20975;-69
2023/10/01 10:11:40;;;;;;;8.35;3.87;;;22.00;58.40;;;;;;2620707;52;20922;-68
2023/10/01 10:16:59;;;;;;;7.57;3.35;;;22.10;58.40;;;;;;2368092;53;20963;-69
2023/10/01 10:19:26;;;;;;;7.97;3.28;;;22.30;58.20;;;;;;2365634;53;21000;-70
2023/10/01 10:22:16;;;;;;;7.32;3.50;;;22.30;58.00;;;;;;2620850;52;21204;-71
2023/10/01 10:24:47;;;;;;;5.78;2.97;;;22.50;57.80;;;;;;2622362;52;21021;-68
2023/10/01 10:27:57;;;;;;;8.90;3.70;;;22.50;57.80;;;;;;2370123;53;21189;-69
2023/10/01 10:30:27;;;;;;;6.85;2.80;;;22.70;57.50;;;;;;2615223;52;21206;-69
2023/10/01 10:40:29;;;;;;;6.82;3.10;;;22.70;57.70;;;;;;2589782;53;20982;-70
2023/10/01 10:43:16;;;;;;;6.10;2.45;;;23.00;57.40;;;;;;2622843;52;20930;-68
2023/10/01 10:45:57;;;;;;;5.75;2.55;;;23.10;57.10;;;;;;2622409;52;20950;-67
2023/10/01 10:48:47;;;;;;;6.03;3.10;;;23.20;57.00;;;;;;2369884;53;20918;-68
2023/10/01 10:51:43;;;;;;;7.10;3.12;;;23.30;56.90;;;;;;2621531;52;21664;-69
2023/10/01 10:54:12;;;;;;;8.45;3.83;;;23.30;56.70;;;;;;2622641;52;20938;-70
2023/10/01 10:56:44;;;;;;;6.90;3.20;;;23.40;57.00;;;;;;2353345;53;20981;-67
2023/10/01 10:59:13;;;;;;;7.93;3.53;;;23.50;56.90;;;;;;2342734;53;20937;-68
2023/10/01 11:01:47;;;;;;;7.80;3.42;;;23.50;57.10;;;;;;2588981;52;20921;-69
2023/10/01 11:04:16;;;;;;;7.35;3.47;;;23.60;56.90;;;;;;2616454;52;20927;-68
2023/10/01 11:06:43;;;;;;;7.65;3.85;;;23.70;57.00;;;;;;2370238;53;21750;-70
2023/10/01 11:09:22;;;;;;;7.93;3.58;;;23.80;57.00;;;;;;2369146;53;20946;-70
2023/10/01 11:11:49;;;;;;;7.53;3.33;;;23.80;56.70;;;;;;2371563;53;20950;-71
2023/10/01 11:14:18;;;;;;;7.70;3.33;;;23.90;56.80;;;;;;2369476;53;21174;-71
2023/10/01 11:16:48;;;;;;;8.23;3.97;;;24.00;56.70;;;;;;2369330;53;21009;-69
2023/10/01 11:19:16;;;;;;;7.37;3.60;;;24.10;56.50;;;;;;2614198;52;20928;-72
2023/10/01 11:21:58;;;;;;;8.50;3.75;;;24.20;56.40;;;;;;2367110;53;20997;-71
2023/10/01 11:24:42;;;;;;;8.60;4.10;;;24.20;56.30;;;;;;2369385;53;20962;-68
2023/10/01 11:27:45;;;;;;;8.52;3.20;;;24.30;55.80;;;;;;2370456;53;20906;-69
2023/10/01 11:30:20;;;;;;;10.10;3.87;;;24.40;55.80;;;;;;2622274;52;21021;-69
2023/10/01 11:33:13;;;;;;;8.52;3.37;;;24.40;56.00;;;;;;2369187;53;21337;-68
2023/10/01 11:36:07;;;;;;;7.93;3.67;;;24.60;55.60;;;;;;2369924;53;20906;-71
2023/10/01 11:38:35;;;;;;;6.40;3.20;;;24.60;55.40;;;;;;2621398;52;21027;-69
2023/10/01 11:41:09;;;;;;;7.10;3.20;;;24.70;55.70;;;;;;2369769;53;20946;-69
2023/10/01 11:43:40;;;;;;;8.43;3.80;;;24.70;55.50;;;;;;2369331;53;21742;-68
2023/10/01 11:46:23;;;;;;;8.15;3.60;;;24.80;55.60;;;;;;2369341;53;20911;-68
2023/10/01 11:48:56;;;;;;;9.05;3.58;;;24.90;55.10;;;;;;2369275;53;20926;-70
2023/10/01 11:52:05;;;;;;;8.68;3.50;;;24.90;55.00;;;;;;2620685;52;20995;-70
2023/10/01 11:54:44;;;;;;;7.90;3.47;;;25.00;54.60;;;;;;2621449;52;20930;-71
2023/10/01 11:57:23;;;;;;;6.93;3.08;;;25.00;54.90;;;;;;2369192;53;20981;-68
2023/10/01 11:59:55;;;;;;;9.57;3.78;;;25.10;54.70;;;;;;2620622;52;20918;-68
2023/10/01 12:02:32;;;;;;;8.13;3.28;;;25.10;54.60;;;;;;2621682;52;21002;-68
2023/10/01 12:05:02;;;;;;;7.60;4.05;;;25.20;54.40;;;;;;2621578;52;20938;-69
2023/10/01 12:07:39;;;;;;;6.57;3.40;;;25.20;54.40;;;;;;2369452;53;20958;-68
2023/10/01 12:10:08;;;;;;;6.47;2.95;;;25.30;54.30;;;;;;2370847;53;20933;-71
2023/10/01 12:12:37;;;;;;;7.78;3.45;;;25.30;54.20;;;;;;2364351;53;21067;-70
2023/10/01 12:17:52;;;;;;;8.02;3.40;;;25.50;54.20;;;;;;2616824;52;21407;-73
2023/10/01 12:20:30;;;;;;;9.80;4.20;;;25.50;54.10;;;;;;2622241;52;20963;-69
2023/10/01 12:23:22;;;;;;;;;;;;;;;;;;;;;
2023/10/01 12:29:49;;;;;;;6.85;3.47;;;25.70;53.80;;;;;;2369557;53;20995;-69
2023/10/01 12:32:16;;;;;;;6.07;3.15;;;25.80;53.60;;;;;;2617946;52;20909;-70
2023/10/01 12:34:43;;;;;;;6.93;3.42;;;25.80;53.40;;;;;;2615117;52;21029;-69
2023/10/01 12:37:35;;;;;;;7.75;3.37;;;25.80;53.30;;;;;;2368852;53;20941;-69
2023/10/01 12:40:16;;;;;;;8.25;3.70;;;25.90;53.30;;;;;;2622119;52;20926;-70
2023/10/01 12:42:51;;;;;;;7.90;3.65;;;25.90;53.20;;;;;;2621411;52;20942;-70
2023/10/01 12:45:20;;;;;;;8.63;3.83;;;26.00;53.00;;;;;;2622368;52;20919;-68
2023/10/01 12:47:53;;;;;;;6.78;3.40;;;26.00;53.00;;;;;;2621751;52;20914;-69
2023/10/01 12:50:28;;;;;;;6.85;3.35;;;26.10;53.00;;;;;;2609427;52;20907;-69
2023/10/01 12:56:14;;;;;;;9.45;3.42;;;26.20;52.80;;;;;;2621246;52;20930;-68
2023/10/01 12:58:51;;;;;;;6.82;3.53;;;26.20;52.80;;;;;;2369531;53;21002;-69
2023/10/01 13:01:31;;;;;;;8.63;3.50;;;26.20;52.60;;;;;;2367737;53;21873;-70
2023/10/01 13:04:21;;;;;;;8.43;4.10;;;26.30;52.40;;;;;;2365778;53;21032;-70
2023/10/01 13:06:49;;;;;;;7.30;3.87;;;26.30;52.40;;;;;;2621312;52;20982;-69
2023/10/01 13:09:35;;;;;;;7.82;3.85;;;26.40;52.20;;;;;;2369216;53;20966;-71
2023/10/01 13:12:13;;;;;;;8.20;4.20;;;26.40;52.00;;;;;;2366704;53;21012;-68
2023/10/01 13:15:14;;;;;;;6.95;3.55;;;26.40;51.90;;;;;;2368499;53;20975;-70
2023/10/01 13:17:44;;;;;;;8.30;3.90;;;26.50;51.60;;;;;;2363871;53;21382;-68
2023/10/01 13:20:25;;;;;;;7.55;3.80;;;26.50;51.80;;;;;;2368544;53;21346;-71
2023/10/01 13:22:59;;;;;;;8.68;3.75;;;26.50;51.50;;;;;;2369569;53;20938;-70
2023/10/01 13:25:26;;;;;;;6.10;3.28;;;26.60;51.70;;;;;;2368333;53;21463;-69
2023/10/01 13:28:01;;;;;;;6.70;3.25;;;26.60;51.60;;;;;;2369431;53;21024;-69
2023/10/01 13:30:30;;;;;;;6.95;3.28;;;26.60;51.50;;;;;;2621578;52;21488;-69
2023/10/01 13:33:14;;;;;;;7.47;3.72;;;26.70;51.30;;;;;;2370187;53;21720;-70
2023/10/01 13:35:56;;;;;;;10.30;3.62;;;26.70;51.20;;;;;;2368933;53;20918;-68
2023/10/01 13:38:27;;;;;;;5.55;2.90;;;26.80;51.20;;;;;;2620863;52;21002;-69
2023/10/01 14:09:55;;;;;;;9.00;3.85;;;27.10;50.30;;;;;;2620264;52;21397;-69
2023/10/01 14:12:41;;;;;;;9.23;3.25;;;27.10;50.30;;;;;;2336569;54;21329;-69
2023/10/01 14:15:21;;;;;;;7.37;3.15;;;27.20;50.20;;;;;;2374811;53;20938;-68
2023/10/01 14:17:54;;;;;;;8.05;3.45;;;27.20;49.90;;;;;;2367928;53;22015;-69
2023/10/01 14:20:46;;;;;;;7.18;3.45;;;27.30;50.00;;;;;;2620979;52;20942;-69
2023/10/01 14:23:39;;;;;;;7.18;3.40;;;27.30;49.90;;;;;;2621151;52;20926;-71
2023/10/01 14:26:33;;;;;;;;;;;;;;;;;;;;;
2023/10/01 14:29:00;;;;;;;8.40;3.75;;;27.30;49.80;;;;;;2369916;53;20902;-72
2023/10/01 14:31:41;;;;;;;7.15;3.17;;;27.30;49.60;;;;;;2620842;52;20988;-69
2023/10/01 14:34:11;;;;;;;7.22;3.67;;;27.30;49.50;;;;;;2371083;53;21031;-70